createdAt,value
2018-10-12T00:01:34.365Z,10.87
2018-10-12T00:04:02.813Z,10.84
2018-10-12T00:06:31.314Z,10.86
2018-10-12T00:09:00.000Z,10.91
2018-10-12T00:11:28.489Z,11.00
2018-10-12T00:13:56.954Z,11.01
2018-10-12T00:16:25.693Z,11.03
2018-10-12T00:18:54.219Z,11.01
2018-10-12T00:21:22.828Z,10.86
2018-10-12T00:23:51.571Z,10.88
2018-10-12T00:26:20.011Z,10.84
2018-10-12T00:28:48.476Z,10.97
2018-10-12T00:31:16.971Z,11.06
2018-10-12T00:33:45.480Z,11.13
2018-10-12T00:36:13.963Z,11.19
2018-10-12T00:38:42.433Z,11.22
2018-10-12T00:41:10.880Z,11.26
2018-10-12T00:43:39.358Z,11.18
2018-10-12T00:46:07.851Z,10.96
2018-10-12T00:48:36.313Z,10.74
2018-10-12T00:51:04.795Z,10.86
2018-10-12T00:53:33.419Z,11.04
2018-10-12T00:56:01.933Z,11.05
2018-10-12T00:58:30.385Z,10.98
2018-10-12T01:00:58.843Z,11.19
2018-10-12T01:03:27.255Z,11.27
2018-10-12T01:05:55.761Z,11.21
2018-10-12T01:08:24.215Z,11.05
2018-10-12T01:10:52.683Z,11.17
2018-10-12T01:13:21.273Z,11.11
2018-10-12T01:15:49.752Z,11.16
2018-10-12T01:18:18.309Z,11.26
2018-10-12T01:20:46.723Z,11.33
2018-10-12T01:23:15.217Z,11.09
2018-10-12T01:25:43.662Z,11.15
2018-10-12T01:28:12.172Z,11.09
2018-10-12T01:30:41.439Z,11.15
2018-10-12T01:33:09.939Z,11.18
2018-10-12T01:35:38.364Z,11.19
2018-10-12T01:38:06.832Z,11.19
2018-10-12T01:40:35.244Z,11.14
2018-10-12T01:43:03.761Z,11.08
2018-10-12T01:45:32.171Z,10.88
2018-10-12T01:48:00.948Z,10.89
2018-10-12T01:50:29.389Z,10.90
2018-10-12T01:52:57.848Z,10.93
2018-10-12T01:55:26.329Z,10.88
2018-10-12T01:57:54.868Z,10.81
2018-10-12T02:00:23.636Z,10.82
2018-10-12T02:02:52.139Z,10.77
2018-10-12T02:05:20.869Z,10.74
2018-10-12T02:07:49.345Z,10.42
2018-10-12T02:10:17.797Z,10.65
2018-10-12T02:12:46.278Z,10.80
2018-10-12T02:15:14.996Z,10.77
2018-10-12T02:17:43.433Z,10.78
2018-10-12T02:20:12.263Z,10.85
2018-10-12T02:22:41.012Z,10.89
2018-10-12T02:25:09.947Z,10.86
2018-10-12T02:27:38.392Z,10.81
2018-10-12T02:30:07.853Z,10.78
2018-10-12T02:32:36.307Z,10.74
2018-10-12T02:35:05.377Z,10.72
2018-10-12T02:37:33.881Z,10.73
2018-10-12T02:40:02.975Z,10.74
2018-10-12T02:42:31.469Z,10.74
2018-10-12T02:45:00.561Z,10.68
2018-10-12T02:47:29.079Z,10.71
2018-10-12T02:49:57.592Z,10.56
2018-10-12T02:52:26.049Z,10.50
2018-10-12T02:54:54.544Z,10.50
2018-10-12T02:57:23.065Z,10.51
2018-10-12T02:59:51.538Z,10.54
2018-10-12T03:02:20.030Z,10.40
2018-10-12T03:04:48.775Z,10.36
2018-10-12T03:07:17.254Z,10.18
2018-10-12T03:09:45.686Z,10.25
2018-10-12T03:12:14.160Z,10.29
2018-10-12T03:14:42.757Z,10.35
2018-10-12T03:17:11.455Z,10.34
2018-10-12T03:19:40.513Z,10.17
2018-10-12T03:22:08.955Z,10.14
2018-10-12T03:24:37.465Z,10.33
2018-10-12T03:27:06.111Z,10.38
2018-10-12T03:29:34.594Z,10.34
2018-10-12T03:32:03.048Z,10.42
2018-10-12T03:34:31.800Z,10.41
2018-10-12T03:37:00.273Z,10.44
2018-10-12T03:39:28.736Z,10.55
2018-10-12T03:41:57.198Z,10.48
2018-10-12T03:44:25.719Z,10.57
2018-10-12T03:46:54.092Z,10.63
2018-10-12T03:49:23.037Z,10.80
2018-10-12T03:51:51.504Z,10.92
2018-10-12T03:54:20.141Z,10.93
2018-10-12T03:56:48.583Z,10.95
2018-10-12T03:59:17.056Z,10.93
2018-10-12T04:01:45.571Z,11.04
2018-10-12T04:04:14.059Z,10.95
2018-10-12T04:06:42.583Z,10.73
2018-10-12T04:09:11.044Z,10.87
2018-10-12T04:11:39.530Z,11.05
2018-10-12T04:14:08.000Z,11.19
2018-10-12T04:16:36.417Z,11.19
2018-10-12T04:19:04.904Z,11.25
2018-10-12T04:21:33.315Z,11.16
2018-10-12T04:24:01.805Z,11.10
2018-10-12T04:26:30.236Z,10.81
2018-10-12T04:28:58.676Z,10.78
2018-10-12T04:31:27.120Z,11.06
2018-10-12T04:33:55.539Z,11.04
2018-10-12T04:36:24.520Z,11.07
2018-10-12T04:39:05.031Z,11.07
2018-10-12T04:41:33.507Z,11.07
2018-10-12T04:44:03.728Z,11.09
2018-10-12T04:46:47.771Z,11.11
2018-10-12T04:49:17.221Z,11.11
2018-10-12T04:51:48.777Z,11.12
2018-10-12T04:54:18.009Z,11.07
2018-10-12T04:56:47.176Z,11.06
2018-10-12T04:59:15.709Z,10.73
2018-10-12T05:01:44.167Z,10.71
2018-10-12T05:04:13.611Z,10.69
2018-10-12T05:06:43.100Z,10.50
2018-10-12T05:09:12.523Z,10.71
2018-10-12T05:11:41.421Z,10.69
2018-10-12T05:14:10.372Z,10.69
2018-10-12T05:16:38.941Z,10.68
2018-10-12T05:19:08.421Z,10.66
2018-10-12T05:21:36.860Z,10.56
2018-10-12T05:24:05.281Z,10.52
2018-10-12T05:26:33.871Z,10.47
2018-10-12T05:29:02.848Z,10.39
2018-10-12T05:31:31.310Z,10.37
2018-10-12T05:34:00.010Z,10.33
2018-10-12T05:36:28.459Z,10.29
2018-10-12T05:38:57.050Z,10.42
2018-10-12T05:41:25.558Z,10.47
2018-10-12T05:43:54.523Z,10.51
2018-10-12T05:46:23.063Z,10.46
2018-10-12T05:49:02.718Z,10.41
2018-10-12T05:51:31.167Z,10.32
2018-10-12T05:54:00.281Z,10.37
2018-10-12T05:56:30.894Z,10.31
2018-10-12T05:58:59.826Z,10.30
2018-10-12T06:01:28.443Z,10.35
2018-10-12T06:03:57.017Z,10.43
2018-10-12T06:06:25.481Z,10.46
2018-10-12T06:08:54.684Z,10.26
2018-10-12T06:11:23.600Z,10.44
2018-10-12T06:13:52.056Z,10.30
2018-10-12T06:16:20.526Z,10.29
2018-10-12T06:18:49.174Z,10.37
2018-10-12T06:21:17.995Z,10.43
2018-10-12T06:23:46.552Z,10.43
2018-10-12T06:26:15.659Z,10.45
2018-10-12T06:28:44.245Z,10.54
2018-10-12T06:31:13.086Z,10.66
2018-10-12T06:33:42.109Z,10.79
2018-10-12T06:36:10.753Z,11.00
2018-10-12T06:38:39.258Z,11.21
2018-10-12T06:41:08.060Z,11.31
2018-10-12T06:43:36.727Z,11.17
2018-10-12T06:46:05.248Z,11.29
2018-10-12T06:48:33.759Z,11.16
2018-10-12T06:51:04.660Z,11.01
2018-10-12T06:53:33.173Z,10.99
2018-10-12T06:56:01.700Z,11.02
2018-10-12T06:58:30.277Z,11.13
2018-10-12T07:00:59.545Z,10.99
2018-10-12T07:03:28.129Z,11.06
2018-10-12T07:05:56.615Z,11.73
2018-10-12T07:08:26.512Z,11.73
2018-10-12T07:10:55.014Z,12.23
2018-10-12T07:13:23.470Z,12.18
2018-10-12T07:15:52.624Z,12.51
2018-10-12T07:18:21.124Z,13.24
2018-10-12T07:20:49.563Z,13.70
2018-10-12T07:23:18.082Z,13.22
2018-10-12T07:25:46.578Z,13.44
2018-10-12T07:28:15.057Z,13.57
2018-10-12T07:30:43.530Z,13.44
2018-10-12T07:33:12.039Z,13.53
2018-10-12T07:35:40.743Z,13.88
2018-10-12T07:38:09.193Z,14.22
2018-10-12T07:40:37.626Z,14.75
2018-10-12T07:43:06.049Z,15.09
2018-10-12T07:45:34.528Z,15.23
2018-10-12T07:48:03.152Z,15.13
2018-10-12T07:50:31.566Z,15.56
2018-10-12T07:53:00.865Z,15.90
2018-10-12T07:55:29.345Z,15.79
2018-10-12T07:57:58.106Z,16.44
2018-10-12T08:00:26.381Z,16.32
2018-10-12T08:02:54.979Z,16.66
2018-10-12T08:05:23.499Z,16.84
2018-10-12T08:07:51.930Z,17.10
2018-10-12T08:10:20.407Z,17.57
2018-10-12T08:12:48.869Z,18.15
2018-10-12T08:15:17.323Z,18.75
2018-10-12T08:17:45.926Z,18.83
2018-10-12T08:20:14.902Z,18.52
2018-10-12T08:22:43.437Z,19.09
2018-10-12T08:25:11.922Z,19.03
2018-10-12T08:27:40.391Z,19.37
2018-10-12T08:30:09.068Z,19.70
2018-10-12T08:32:37.724Z,20.21
2018-10-12T08:35:06.431Z,20.39
2018-10-12T08:37:34.956Z,20.43
2018-10-12T08:40:03.486Z,20.60
2018-10-12T08:42:32.826Z,21.18
2018-10-12T08:45:01.343Z,20.88
2018-10-12T08:47:30.081Z,21.67
2018-10-12T08:49:58.664Z,21.69
2018-10-12T08:52:27.082Z,22.40
2018-10-12T08:54:55.625Z,22.58
2018-10-12T08:57:24.816Z,22.37
2018-10-12T08:59:53.369Z,22.32
2018-10-12T09:02:22.317Z,22.56
2018-10-12T09:04:51.698Z,22.99
2018-10-12T09:07:20.183Z,23.05
2018-10-12T09:09:48.728Z,23.15
2018-10-12T09:12:17.197Z,23.16
2018-10-12T09:14:45.645Z,23.50
2018-10-12T09:17:14.167Z,23.53
2018-10-12T09:19:42.639Z,23.53
2018-10-12T09:22:11.124Z,22.98
2018-10-12T09:24:39.607Z,23.89
2018-10-12T09:27:09.152Z,23.96
2018-10-12T09:29:37.605Z,23.85
2018-10-12T09:32:06.085Z,23.55
2018-10-12T09:34:34.518Z,23.58
2018-10-12T09:37:03.251Z,24.02
2018-10-12T09:39:32.255Z,23.50
2018-10-12T09:42:01.120Z,23.66
2018-10-12T09:44:29.935Z,23.75
2018-10-12T09:46:58.504Z,23.94
2018-10-12T09:49:26.950Z,24.11
2018-10-12T09:51:55.952Z,24.28
2018-10-12T09:54:24.945Z,24.53
2018-10-12T09:56:58.651Z,24.77
2018-10-12T09:59:27.253Z,23.85
2018-10-12T10:02:00.973Z,24.48
2018-10-12T10:04:32.607Z,24.79
2018-10-12T10:07:02.471Z,24.88
2018-10-12T10:09:31.002Z,25.26
2018-10-12T10:11:59.789Z,25.53
2018-10-12T10:14:29.479Z,25.40
2018-10-12T10:16:57.996Z,25.03
2018-10-12T10:19:26.634Z,25.48
2018-10-12T10:21:55.600Z,25.76
2018-10-12T10:24:24.107Z,25.86
2018-10-12T10:26:52.678Z,26.06
2018-10-12T10:29:21.798Z,26.13
2018-10-12T10:31:50.231Z,25.61
2018-10-12T10:34:18.902Z,25.68
2018-10-12T10:36:48.056Z,26.29
2018-10-12T10:39:16.335Z,26.48
2018-10-12T10:41:44.810Z,25.87
2018-10-12T10:44:13.284Z,25.52
2018-10-12T10:46:42.213Z,25.73
2018-10-12T10:49:10.640Z,25.11
2018-10-12T10:51:39.117Z,25.69
2018-10-12T10:54:07.591Z,25.67
2018-10-12T10:56:36.031Z,25.73
2018-10-12T10:59:05.120Z,25.88
2018-10-12T11:01:33.533Z,25.39
2018-10-12T11:04:02.064Z,25.70
2018-10-12T11:06:30.601Z,25.57
2018-10-12T11:08:59.239Z,26.19
2018-10-12T11:11:27.777Z,26.39
2018-10-12T11:13:56.350Z,26.34
2018-10-12T11:16:24.750Z,26.94
2018-10-12T11:18:53.245Z,26.99
2018-10-12T11:21:21.736Z,26.90
2018-10-12T11:23:50.159Z,26.71
2018-10-12T11:26:18.681Z,26.82
2018-10-12T11:28:47.111Z,26.16
2018-10-12T11:31:15.531Z,26.27
2018-10-12T11:33:44.067Z,26.99
2018-10-12T11:36:12.515Z,26.04
2018-10-12T11:38:40.988Z,26.87
2018-10-12T11:41:09.392Z,27.37
2018-10-12T11:43:38.991Z,27.00
2018-10-12T11:46:08.561Z,27.37
2018-10-12T11:48:36.990Z,27.27
2018-10-12T11:51:05.458Z,27.71
2018-10-12T11:53:34.423Z,27.38
2018-10-12T11:56:03.658Z,27.35
2018-10-12T11:58:32.530Z,26.79
2018-10-12T12:01:01.008Z,26.78
2018-10-12T12:03:30.098Z,26.86
2018-10-12T12:05:58.541Z,26.52
2018-10-12T12:08:27.166Z,26.75
2018-10-12T12:10:55.610Z,27.02
2018-10-12T12:13:24.329Z,27.66
2018-10-12T12:15:52.780Z,27.44
2018-10-12T12:18:21.223Z,27.42
2018-10-12T12:20:49.699Z,27.31
2018-10-12T12:23:18.171Z,26.70
2018-10-12T12:25:46.559Z,27.16
2018-10-12T12:28:14.964Z,27.29
2018-10-12T12:30:44.262Z,27.08
2018-10-12T12:33:12.738Z,27.16
2018-10-12T12:35:41.511Z,27.19
2018-10-12T12:38:09.653Z,27.28
2018-10-12T12:40:38.064Z,26.89
2018-10-12T12:43:06.505Z,26.96
2018-10-12T12:45:34.952Z,26.96
2018-10-12T12:48:10.034Z,26.78
2018-10-12T12:50:38.289Z,26.94
2018-10-12T12:53:07.943Z,26.79
2018-10-12T12:55:36.394Z,26.48
2018-10-12T12:58:04.836Z,26.49
2018-10-12T13:00:33.266Z,25.94
2018-10-12T13:03:02.592Z,25.87
2018-10-12T13:05:30.987Z,25.69
2018-10-12T13:07:59.397Z,25.30
2018-10-12T13:10:27.834Z,25.10
2018-10-12T13:12:56.267Z,25.16
2018-10-12T13:15:24.693Z,25.06
2018-10-12T13:17:53.149Z,25.24
2018-10-12T13:20:21.623Z,25.25
2018-10-12T13:22:50.052Z,25.26
2018-10-12T13:25:18.499Z,25.34
2018-10-12T13:27:46.940Z,25.48
2018-10-12T13:30:15.460Z,25.43
2018-10-12T13:32:44.152Z,25.79
2018-10-12T13:35:12.625Z,25.81
2018-10-12T13:37:41.150Z,25.95
2018-10-12T13:40:09.559Z,25.80
2018-10-12T13:42:38.003Z,25.55
2018-10-12T13:45:06.561Z,25.33
2018-10-12T13:47:34.949Z,25.33
2018-10-12T13:50:03.423Z,25.36
2018-10-12T13:52:31.988Z,25.46
2018-10-12T13:55:00.430Z,25.28
2018-10-12T13:57:28.882Z,25.38
2018-10-12T13:59:57.357Z,25.32
2018-10-12T14:02:25.815Z,25.19
2018-10-12T14:04:54.248Z,25.27
2018-10-12T14:07:23.338Z,25.03
2018-10-12T14:09:52.082Z,25.14
2018-10-12T14:12:20.738Z,24.98
2018-10-12T14:14:49.149Z,24.96
2018-10-12T14:17:17.560Z,25.07
2018-10-12T14:19:46.629Z,25.04
2018-10-12T14:22:15.172Z,25.22
2018-10-12T14:24:44.061Z,25.19
2018-10-12T14:27:12.645Z,25.26
2018-10-12T14:29:41.184Z,25.45
2018-10-12T14:32:09.612Z,25.41
2018-10-12T14:34:38.365Z,25.80
2018-10-12T14:37:07.071Z,25.60
2018-10-12T14:39:35.603Z,25.10
2018-10-12T14:42:04.863Z,25.36
2018-10-12T14:44:33.986Z,25.38
2018-10-12T14:47:03.338Z,25.29
2018-10-12T14:49:33.058Z,25.22
2018-10-12T14:52:01.653Z,25.09
2018-10-12T14:54:30.131Z,25.07
2018-10-12T14:56:59.699Z,25.13
2018-10-12T14:59:28.234Z,25.03
2018-10-12T15:01:56.856Z,25.09
2018-10-12T15:04:25.438Z,24.97
2018-10-12T15:06:53.923Z,24.89
2018-10-12T15:09:23.260Z,24.85
2018-10-12T15:11:51.883Z,24.72
2018-10-12T15:14:29.503Z,24.58
2018-10-12T15:16:58.069Z,24.56
2018-10-12T15:19:26.504Z,24.46
2018-10-12T15:21:55.578Z,24.51
2018-10-12T15:24:24.035Z,24.56
2018-10-12T15:26:52.563Z,24.54
2018-10-12T15:29:21.081Z,24.57
2018-10-12T15:31:49.577Z,24.60
2018-10-12T15:34:18.039Z,24.51
2018-10-12T15:36:46.543Z,24.48
2018-10-12T15:39:14.945Z,24.52
2018-10-12T15:41:43.512Z,24.56
2018-10-12T15:44:11.991Z,24.39
2018-10-12T15:46:40.495Z,24.39
2018-10-12T15:49:09.093Z,24.26
2018-10-12T15:51:37.755Z,24.14
2018-10-12T15:54:06.128Z,24.20
2018-10-12T15:56:34.813Z,24.26
2018-10-12T15:59:03.270Z,24.14
2018-10-12T16:01:31.739Z,24.04
2018-10-12T16:04:00.512Z,24.15
2018-10-12T16:06:29.004Z,24.07
2018-10-12T16:08:57.514Z,24.04
2018-10-12T16:11:26.256Z,23.87
2018-10-12T16:13:55.532Z,23.85
2018-10-12T16:16:24.009Z,23.63
2018-10-12T16:18:52.495Z,23.65
2018-10-12T16:21:20.998Z,23.63
2018-10-12T16:23:51.168Z,23.50
2018-10-12T16:26:23.664Z,23.41
2018-10-12T16:28:52.146Z,23.34
2018-10-12T16:31:20.589Z,23.20
2018-10-12T16:33:49.029Z,22.98
2018-10-12T16:36:17.445Z,23.00
2018-10-12T16:38:45.884Z,22.76
2018-10-12T16:41:14.352Z,22.59
2018-10-12T16:43:42.857Z,22.49
2018-10-12T16:46:11.930Z,22.30
2018-10-12T16:48:40.554Z,22.04
2018-10-12T16:51:09.515Z,22.00
2018-10-12T16:53:39.725Z,21.90
2018-10-12T16:56:08.143Z,21.71
2018-10-12T16:58:37.499Z,21.47
2018-10-12T17:01:05.965Z,21.32
2018-10-12T17:03:34.389Z,21.17
2018-10-12T17:06:02.848Z,20.95
2018-10-12T17:08:31.315Z,20.70
2018-10-12T17:10:59.733Z,20.52
2018-10-12T17:13:28.190Z,20.44
2018-10-12T17:15:56.592Z,20.34
2018-10-12T17:18:26.203Z,20.25
2018-10-12T17:20:54.552Z,20.09
2018-10-12T17:23:24.740Z,19.93
2018-10-12T17:25:53.224Z,19.74
2018-10-12T17:28:21.809Z,19.62
2018-10-12T17:30:50.555Z,19.38
2018-10-12T17:33:19.005Z,19.28
2018-10-12T17:35:47.471Z,19.12
2018-10-12T17:38:15.938Z,18.99
2018-10-12T17:40:44.389Z,18.99
2018-10-12T17:43:12.855Z,18.92
2018-10-12T17:45:41.279Z,18.87
2018-10-12T17:48:09.879Z,18.79
2018-10-12T17:50:40.951Z,18.77
2018-10-12T17:53:09.464Z,18.77
2018-10-12T17:55:38.284Z,18.69
2018-10-12T17:58:06.850Z,18.60
2018-10-12T18:00:35.420Z,18.55
2018-10-12T18:03:04.037Z,18.52
2018-10-12T18:05:32.567Z,18.48
2018-10-12T18:08:01.081Z,18.46
2018-10-12T18:10:30.412Z,18.42
2018-10-12T18:12:58.913Z,18.32
2018-10-12T18:15:27.977Z,18.22
2018-10-12T18:17:56.574Z,18.16
2018-10-12T18:20:25.124Z,18.17
2018-10-12T18:22:53.632Z,18.13
2018-10-12T18:25:22.070Z,18.09
2018-10-12T18:27:51.029Z,18.06
2018-10-12T18:30:20.140Z,18.07
2018-10-12T18:32:49.149Z,18.01
2018-10-12T18:35:17.610Z,17.96
2018-10-12T18:37:46.067Z,17.87
2018-10-12T18:40:14.584Z,17.85
2018-10-12T18:42:43.086Z,17.84
2018-10-12T18:45:11.561Z,17.81
2018-10-12T18:47:40.107Z,17.93
2018-10-12T18:50:08.978Z,17.87
2018-10-12T18:52:37.428Z,17.81
2018-10-12T18:55:06.315Z,17.79
2018-10-12T18:57:35.850Z,17.74
2018-10-12T19:00:06.390Z,17.64
2018-10-12T19:02:35.839Z,17.42
2018-10-12T19:05:04.468Z,17.20
2018-10-12T19:07:32.989Z,17.20
2018-10-12T19:10:01.535Z,17.21
2018-10-12T19:12:29.983Z,17.19
2018-10-12T19:14:58.486Z,17.28
2018-10-12T19:17:26.865Z,17.30
2018-10-12T19:19:56.164Z,17.27
2018-10-12T19:22:25.101Z,17.19
2018-10-12T19:24:53.607Z,17.08
2018-10-12T19:27:22.338Z,17.04
2018-10-12T19:29:51.048Z,16.97
2018-10-12T19:32:20.440Z,16.94
2018-10-12T19:34:48.971Z,16.87
2018-10-12T19:37:17.415Z,16.88
2018-10-12T19:39:45.928Z,16.94
2018-10-12T19:42:14.817Z,16.98
2018-10-12T19:44:43.304Z,16.96
2018-10-12T19:47:11.734Z,16.86
2018-10-12T19:49:41.480Z,16.86
2018-10-12T19:52:09.941Z,16.78
2018-10-12T19:54:38.350Z,16.75
2018-10-12T19:57:06.791Z,16.77
2018-10-12T19:59:35.253Z,16.75
2018-10-12T20:02:03.862Z,16.78
2018-10-12T20:04:32.834Z,16.74
2018-10-12T20:07:01.406Z,16.60
2018-10-12T20:09:29.888Z,16.48
2018-10-12T20:11:58.690Z,16.28
2018-10-12T20:14:27.661Z,16.21
2018-10-12T20:16:56.145Z,16.29
2018-10-12T20:19:25.399Z,16.29
2018-10-12T20:21:53.927Z,16.31
2018-10-12T20:24:22.454Z,16.25
2018-10-12T20:26:50.895Z,16.22
2018-10-12T20:29:19.305Z,16.10
2018-10-12T20:31:47.932Z,16.12
2018-10-12T20:34:16.705Z,16.12
2018-10-12T20:36:45.151Z,16.07
2018-10-12T20:39:13.591Z,16.10
2018-10-12T20:41:42.956Z,16.09
2018-10-12T20:44:11.349Z,16.06
2018-10-12T20:46:40.075Z,15.97
2018-10-12T20:49:08.536Z,15.93
2018-10-12T20:51:37.495Z,15.92
2018-10-12T20:54:06.163Z,15.93
2018-10-12T20:56:34.617Z,15.94
2018-10-12T20:59:03.113Z,15.92
2018-10-12T21:01:31.607Z,15.85
2018-10-12T21:04:00.165Z,15.81
2018-10-12T21:06:28.712Z,15.79
2018-10-12T21:08:57.629Z,15.73
2018-10-12T21:11:26.159Z,15.61
2018-10-12T21:13:54.623Z,15.53
2018-10-12T21:16:23.055Z,15.49
2018-10-12T21:18:51.501Z,15.43
2018-10-12T21:21:20.209Z,15.33
2018-10-12T21:23:49.364Z,15.29
2018-10-12T21:26:17.820Z,15.28
2018-10-12T21:28:46.312Z,15.21
2018-10-12T21:31:14.796Z,15.16
2018-10-12T21:33:43.735Z,15.07
2018-10-12T21:36:12.435Z,15.04
2018-10-12T21:38:41.389Z,14.96
2018-10-12T21:41:09.873Z,14.94
2018-10-12T21:43:38.516Z,14.92
2018-10-12T21:46:07.000Z,14.80
2018-10-12T21:48:35.477Z,14.77
2018-10-12T21:51:04.768Z,14.71
2018-10-12T21:53:33.182Z,14.66
2018-10-12T21:56:02.280Z,14.59
2018-10-12T21:58:30.739Z,14.57
2018-10-12T22:01:05.325Z,14.51
2018-10-12T22:03:36.399Z,14.47
2018-10-12T22:06:05.418Z,14.46
2018-10-12T22:08:39.131Z,14.36
2018-10-12T22:11:07.987Z,14.35
2018-10-12T22:13:36.937Z,14.23
2018-10-12T22:16:05.383Z,14.19
2018-10-12T22:18:33.766Z,14.24
2018-10-12T22:21:02.713Z,14.24
2018-10-12T22:23:31.211Z,14.29
2018-10-12T22:25:59.727Z,14.26
2018-10-12T22:28:28.104Z,14.36
2018-10-12T22:30:56.521Z,14.19
2018-10-12T22:33:24.951Z,14.22
2018-10-12T22:35:53.475Z,14.09
2018-10-12T22:38:21.948Z,14.23
2018-10-12T22:40:50.512Z,14.15
2018-10-12T22:43:18.930Z,14.11
2018-10-12T22:45:47.347Z,14.11
2018-10-12T22:48:15.842Z,14.09
2018-10-12T22:50:44.324Z,13.97
2018-10-12T22:53:12.788Z,13.90
2018-10-12T22:55:41.329Z,13.88
2018-10-12T22:58:10.199Z,13.75
2018-10-12T23:00:39.124Z,13.81
2018-10-12T23:03:07.839Z,13.76
2018-10-12T23:05:36.275Z,13.73
2018-10-12T23:08:04.728Z,13.60
2018-10-12T23:10:33.481Z,13.57
2018-10-12T23:13:01.970Z,13.53
2018-10-12T23:15:30.368Z,13.51
2018-10-12T23:17:58.895Z,13.51
2018-10-12T23:20:27.353Z,13.49
2018-10-12T23:22:55.814Z,13.43
2018-10-12T23:25:24.239Z,13.38
2018-10-12T23:27:52.739Z,13.28
2018-10-12T23:30:21.157Z,13.21
2018-10-12T23:32:49.780Z,13.20
2018-10-12T23:35:18.497Z,13.18
2018-10-12T23:37:47.045Z,13.19
2018-10-12T23:40:15.561Z,13.17
2018-10-12T23:42:43.993Z,13.08
2018-10-12T23:45:12.554Z,13.05
2018-10-12T23:47:41.063Z,12.97
2018-10-12T23:50:09.564Z,13.00
2018-10-12T23:52:38.016Z,12.91
2018-10-12T23:55:06.517Z,12.95
2018-10-12T23:57:36.032Z,12.89
